Reads Landing, Minnesota
Current Conditions -  °F | °C
As of 5:11 AM on Sunday 21 Dec 2014 (Local Time) from KRGK Reporting Station
Haze Haze  
Wind Chill: 27°   Ceiling: 800
Heat Index: 34°   Visibility: 3mi
Dew Point: 30°   Wind: 8mph
Humidity: 87%   Direction: 130°SE
Pressure: 29.98"   Gusts: NA
Location:  44.4°N, 92.08°W
Report Text: KRGK 211111Z AUTO 13007KT 3SM BR OVC008 01/M01 A2998 RMK AO2
Loading
Personal Weather Stations






























Interactive Weather Map New forecast layout! Learn more

10-Day Weather Forecast

Advertisements
Track Severe Weather on mobile